sensor_id;sensor_type;location;lat;lon;timestamp;P1;durP1;ratioP1;P2;durP2;ratioP2
33453;SDS011;39400;49.744;7.012;2023-08-24T00:01:38;5.93;;;3.17;;
33453;SDS011;39400;49.744;7.012;2023-08-24T00:04:03;5.95;;;2.92;;
33453;SDS011;39400;49.744;7.012;2023-08-24T00:06:28;8.48;;;3.10;;
33453;SDS011;39400;49.744;7.012;2023-08-24T00:08:54;6.80;;;2.65;;
33453;SDS011;39400;49.744;7.012;2023-08-24T00:11:19;14.35;;;3.30;;
33453;SDS011;39400;49.744;7.012;2023-08-24T00:13:44;5.65;;;2.70;;
33453;SDS011;39400;49.744;7.012;2023-08-24T00:16:10;6.55;;;3.08;;
33453;SDS011;39400;49.744;7.012;2023-08-24T00:18:35;8.95;;;2.95;;
33453;SDS011;39400;49.744;7.012;2023-08-24T00:21:01;5.53;;;2.85;;
33453;SDS011;39400;49.744;7.012;2023-08-24T00:23:26;8.40;;;3.50;;
33453;SDS011;39400;49.744;7.012;2023-08-24T00:25:51;4.50;;;2.55;;
33453;SDS011;39400;49.744;7.012;2023-08-24T00:28:17;5.03;;;2.92;;
33453;SDS011;39400;49.744;7.012;2023-08-24T00:30:42;5.68;;;3.85;;
33453;SDS011;39400;49.744;7.012;2023-08-24T00:33:07;8.38;;;3.05;;
33453;SDS011;39400;49.744;7.012;2023-08-24T00:35:34;8.77;;;3.08;;
33453;SDS011;39400;49.744;7.012;2023-08-24T00:38:01;6.28;;;2.70;;
33453;SDS011;39400;49.744;7.012;2023-08-24T00:40:27;5.70;;;3.15;;
33453;SDS011;39400;49.744;7.012;2023-08-24T00:42:52;4.05;;;2.58;;
33453;SDS011;39400;49.744;7.012;2023-08-24T00:45:18;9.02;;;2.92;;
33453;SDS011;39400;49.744;7.012;2023-08-24T00:47:44;4.57;;;2.47;;
33453;SDS011;39400;49.744;7.012;2023-08-24T00:50:11;5.78;;;2.80;;
33453;SDS011;39400;49.744;7.012;2023-08-24T00:52:39;8.00;;;3.40;;
33453;SDS011;39400;49.744;7.012;2023-08-24T00:55:07;7.43;;;3.50;;
33453;SDS011;39400;49.744;7.012;2023-08-24T00:57:33;4.82;;;3.05;;
33453;SDS011;39400;49.744;7.012;2023-08-24T01:00:01;9.63;;;3.20;;
33453;SDS011;39400;49.744;7.012;2023-08-24T01:02:28;7.97;;;3.25;;
33453;SDS011;39400;49.744;7.012;2023-08-24T01:04:54;6.68;;;2.88;;
33453;SDS011;39400;49.744;7.012;2023-08-24T01:07:19;5.85;;;3.13;;
33453;SDS011;39400;49.744;7.012;2023-08-24T01:09:45;7.70;;;3.28;;
33453;SDS011;39400;49.744;7.012;2023-08-24T01:15:06;8.23;;;2.97;;
33453;SDS011;39400;49.744;7.012;2023-08-24T01:20:04;8.77;;;3.35;;
33453;SDS011;39400;49.744;7.012;2023-08-24T01:22:34;5.57;;;2.33;;
33453;SDS011;39400;49.744;7.012;2023-08-24T01:25:16;4.97;;;3.00;;
33453;SDS011;39400;49.744;7.012;2023-08-24T01:28:02;8.65;;;3.08;;
33453;SDS011;39400;49.744;7.012;2023-08-24T01:30:29;6.63;;;3.15;;
33453;SDS011;39400;49.744;7.012;2023-08-24T01:32:55;5.80;;;3.45;;
33453;SDS011;39400;49.744;7.012;2023-08-24T01:35:20;6.45;;;3.22;;
33453;SDS011;39400;49.744;7.012;2023-08-24T01:37:46;5.07;;;2.67;;
33453;SDS011;39400;49.744;7.012;2023-08-24T01:40:20;5.70;;;2.55;;
33453;SDS011;39400;49.744;7.012;2023-08-24T01:43:02;6.43;;;2.95;;
33453;SDS011;39400;49.744;7.012;2023-08-24T01:45:29;8.15;;;2.75;;
33453;SDS011;39400;49.744;7.012;2023-08-24T01:47:56;3.83;;;2.47;;
33453;SDS011;39400;49.744;7.012;2023-08-24T01:50:24;4.88;;;3.05;;
33453;SDS011;39400;49.744;7.012;2023-08-24T01:52:50;14.07;;;2.85;;
33453;SDS011;39400;49.744;7.012;2023-08-24T01:55:19;4.38;;;2.05;;
33453;SDS011;39400;49.744;7.012;2023-08-24T01:57:45;8.07;;;2.10;;
33453;SDS011;39400;49.744;7.012;2023-08-24T02:00:11;5.15;;;2.88;;
33453;SDS011;39400;49.744;7.012;2023-08-24T02:02:42;3.03;;;2.17;;
33453;SDS011;39400;49.744;7.012;2023-08-24T02:07:34;12.55;;;3.58;;
33453;SDS011;39400;49.744;7.012;2023-08-24T02:09:59;5.90;;;3.03;;
33453;SDS011;39400;49.744;7.012;2023-08-24T02:12:25;7.50;;;2.40;;
33453;SDS011;39400;49.744;7.012;2023-08-24T02:14:50;10.23;;;2.78;;
33453;SDS011;39400;49.744;7.012;2023-08-24T02:17:16;6.75;;;3.03;;
33453;SDS011;39400;49.744;7.012;2023-08-24T02:19:41;4.00;;;2.65;;
33453;SDS011;39400;49.744;7.012;2023-08-24T02:22:08;3.83;;;2.13;;
33453;SDS011;39400;49.744;7.012;2023-08-24T02:24:33;5.07;;;2.72;;
33453;SDS011;39400;49.744;7.012;2023-08-24T02:26:59;11.40;;;3.10;;
33453;SDS011;39400;49.744;7.012;2023-08-24T02:29:25;8.05;;;2.78;;
33453;SDS011;39400;49.744;7.012;2023-08-24T02:31:50;6.97;;;2.55;;
33453;SDS011;39400;49.744;7.012;2023-08-24T02:34:16;12.13;;;2.70;;
33453;SDS011;39400;49.744;7.012;2023-08-24T02:36:41;5.82;;;2.47;;
33453;SDS011;39400;49.744;7.012;2023-08-24T02:39:07;5.45;;;2.63;;
33453;SDS011;39400;49.744;7.012;2023-08-24T02:41:33;4.90;;;2.60;;
33453;SDS011;39400;49.744;7.012;2023-08-24T02:43:59;8.85;;;2.70;;
33453;SDS011;39400;49.744;7.012;2023-08-24T02:46:24;5.95;;;2.47;;
33453;SDS011;39400;49.744;7.012;2023-08-24T02:48:50;7.75;;;2.58;;
33453;SDS011;39400;49.744;7.012;2023-08-24T02:51:15;6.88;;;2.20;;
33453;SDS011;39400;49.744;7.012;2023-08-24T02:53:40;10.43;;;3.33;;
33453;SDS011;39400;49.744;7.012;2023-08-24T02:56:06;4.95;;;2.78;;
33453;SDS011;39400;49.744;7.012;2023-08-24T02:58:31;5.68;;;2.42;;
33453;SDS011;39400;49.744;7.012;2023-08-24T03:00:57;6.43;;;2.42;;
33453;SDS011;39400;49.744;7.012;2023-08-24T03:03:23;5.22;;;2.58;;
33453;SDS011;39400;49.744;7.012;2023-08-24T03:05:59;6.60;;;2.70;;
33453;SDS011;39400;49.744;7.012;2023-08-24T03:08:28;10.00;;;2.85;;
33453;SDS011;39400;49.744;7.012;2023-08-24T03:10:55;5.97;;;2.30;;
33453;SDS011;39400;49.744;7.012;2023-08-24T03:13:20;5.03;;;2.17;;
33453;SDS011;39400;49.744;7.012;2023-08-24T03:15:46;6.72;;;2.53;;
33453;SDS011;39400;49.744;7.012;2023-08-24T03:18:12;4.13;;;2.60;;
33453;SDS011;39400;49.744;7.012;2023-08-24T03:20:39;4.82;;;2.30;;
33453;SDS011;39400;49.744;7.012;2023-08-24T03:23:05;4.80;;;2.80;;
33453;SDS011;39400;49.744;7.012;2023-08-24T03:25:31;6.43;;;2.40;;
33453;SDS011;39400;49.744;7.012;2023-08-24T03:28:00;6.07;;;2.42;;
33453;SDS011;39400;49.744;7.012;2023-08-24T03:30:27;5.45;;;2.38;;
33453;SDS011;39400;49.744;7.012;2023-08-24T03:32:52;4.18;;;2.13;;
33453;SDS011;39400;49.744;7.012;2023-08-24T03:35:17;9.05;;;2.58;;
33453;SDS011;39400;49.744;7.012;2023-08-24T03:37:43;10.27;;;2.50;;
33453;SDS011;39400;49.744;7.012;2023-08-24T03:40:08;4.65;;;2.38;;
33453;SDS011;39400;49.744;7.012;2023-08-24T03:42:34;8.23;;;3.08;;
33453;SDS011;39400;49.744;7.012;2023-08-24T03:44:59;10.20;;;2.30;;
33453;SDS011;39400;49.744;7.012;2023-08-24T03:47:25;6.00;;;2.95;;
33453;SDS011;39400;49.744;7.012;2023-08-24T03:49:50;4.05;;;2.47;;
33453;SDS011;39400;49.744;7.012;2023-08-24T03:52:16;4.18;;;2.53;;
33453;SDS011;39400;49.744;7.012;2023-08-24T03:54:41;5.20;;;2.28;;
33453;SDS011;39400;49.744;7.012;2023-08-24T03:57:06;5.95;;;2.55;;
33453;SDS011;39400;49.744;7.012;2023-08-24T03:59:32;9.80;;;2.78;;
33453;SDS011;39400;49.744;7.012;2023-08-24T04:01:57;8.98;;;2.85;;
33453;SDS011;39400;49.744;7.012;2023-08-24T04:04:23;5.90;;;2.20;;
33453;SDS011;39400;49.744;7.012;2023-08-24T04:06:48;5.10;;;2.95;;
33453;SDS011;39400;49.744;7.012;2023-08-24T04:09:13;5.57;;;2.67;;
33453;SDS011;39400;49.744;7.012;2023-08-24T04:11:39;5.53;;;2.47;;
33453;SDS011;39400;49.744;7.012;2023-08-24T04:14:04;6.70;;;2.10;;
33453;SDS011;39400;49.744;7.012;2023-08-24T04:16:29;6.97;;;2.83;;
33453;SDS011;39400;49.744;7.012;2023-08-24T04:18:55;9.23;;;2.35;;
33453;SDS011;39400;49.744;7.012;2023-08-24T04:21:20;6.25;;;2.80;;
33453;SDS011;39400;49.744;7.012;2023-08-24T04:23:45;6.13;;;2.60;;
33453;SDS011;39400;49.744;7.012;2023-08-24T04:26:11;3.75;;;2.42;;
33453;SDS011;39400;49.744;7.012;2023-08-24T04:28:37;5.68;;;2.47;;
33453;SDS011;39400;49.744;7.012;2023-08-24T04:31:02;6.30;;;2.70;;
33453;SDS011;39400;49.744;7.012;2023-08-24T04:33:28;4.10;;;2.63;;
33453;SDS011;39400;49.744;7.012;2023-08-24T04:35:53;7.38;;;3.20;;
33453;SDS011;39400;49.744;7.012;2023-08-24T04:38:18;4.32;;;2.75;;
33453;SDS011;39400;49.744;7.012;2023-08-24T04:40:51;5.90;;;2.55;;
33453;SDS011;39400;49.744;7.012;2023-08-24T04:43:18;8.55;;;2.78;;
33453;SDS011;39400;49.744;7.012;2023-08-24T04:45:48;3.90;;;2.42;;
33453;SDS011;39400;49.744;7.012;2023-08-24T04:48:14;4.13;;;2.63;;
33453;SDS011;39400;49.744;7.012;2023-08-24T04:50:41;4.22;;;2.35;;
33453;SDS011;39400;49.744;7.012;2023-08-24T04:53:08;5.22;;;2.58;;
33453;SDS011;39400;49.744;7.012;2023-08-24T04:55:34;4.50;;;2.67;;
33453;SDS011;39400;49.744;7.012;2023-08-24T04:57:59;5.57;;;2.80;;
33453;SDS011;39400;49.744;7.012;2023-08-24T05:00:24;4.70;;;3.00;;
33453;SDS011;39400;49.744;7.012;2023-08-24T05:02:50;8.05;;;3.60;;
33453;SDS011;39400;49.744;7.012;2023-08-24T05:05:15;5.43;;;2.92;;
33453;SDS011;39400;49.744;7.012;2023-08-24T05:07:40;4.95;;;2.72;;
33453;SDS011;39400;49.744;7.012;2023-08-24T05:10:06;6.40;;;2.92;;
33453;SDS011;39400;49.744;7.012;2023-08-24T05:12:32;5.93;;;2.58;;
33453;SDS011;39400;49.744;7.012;2023-08-24T05:14:58;9.40;;;3.63;;
33453;SDS011;39400;49.744;7.012;2023-08-24T05:17:23;5.07;;;2.70;;
33453;SDS011;39400;49.744;7.012;2023-08-24T05:19:53;4.80;;;3.08;;
33453;SDS011;39400;49.744;7.012;2023-08-24T05:22:19;8.70;;;3.33;;
33453;SDS011;39400;49.744;7.012;2023-08-24T05:24:44;7.38;;;3.03;;
33453;SDS011;39400;49.744;7.012;2023-08-24T05:27:10;6.90;;;3.20;;
33453;SDS011;39400;49.744;7.012;2023-08-24T05:29:35;9.52;;;3.58;;
33453;SDS011;39400;49.744;7.012;2023-08-24T05:32:01;7.38;;;3.63;;
33453;SDS011;39400;49.744;7.012;2023-08-24T05:34:27;5.53;;;3.00;;
33453;SDS011;39400;49.744;7.012;2023-08-24T05:36:52;9.75;;;3.80;;
33453;SDS011;39400;49.744;7.012;2023-08-24T05:39:18;6.07;;;3.38;;
33453;SDS011;39400;49.744;7.012;2023-08-24T05:41:43;14.98;;;3.47;;
33453;SDS011;39400;49.744;7.012;2023-08-24T05:44:08;5.78;;;3.10;;
33453;SDS011;39400;49.744;7.012;2023-08-24T05:46:34;9.18;;;3.45;;
33453;SDS011;39400;49.744;7.012;2023-08-24T05:48:59;4.88;;;2.63;;
33453;SDS011;39400;49.744;7.012;2023-08-24T05:51:24;10.23;;;3.78;;
33453;SDS011;39400;49.744;7.012;2023-08-24T05:53:50;7.25;;;2.88;;
33453;SDS011;39400;49.744;7.012;2023-08-24T05:56:15;4.93;;;2.75;;
33453;SDS011;39400;49.744;7.012;2023-08-24T05:58:41;4.88;;;2.70;;
33453;SDS011;39400;49.744;7.012;2023-08-24T06:01:06;5.20;;;3.10;;
33453;SDS011;39400;49.744;7.012;2023-08-24T06:03:31;5.88;;;3.10;;
33453;SDS011;39400;49.744;7.012;2023-08-24T06:06:00;5.15;;;3.08;;
33453;SDS011;39400;49.744;7.012;2023-08-24T06:08:26;6.68;;;3.22;;
33453;SDS011;39400;49.744;7.012;2023-08-24T06:10:52;4.15;;;2.65;;
33453;SDS011;39400;49.744;7.012;2023-08-24T06:13:17;6.18;;;3.08;;
33453;SDS011;39400;49.744;7.012;2023-08-24T06:15:42;11.18;;;3.83;;
33453;SDS011;39400;49.744;7.012;2023-08-24T06:18:08;5.03;;;2.60;;
33453;SDS011;39400;49.744;7.012;2023-08-24T06:20:33;8.50;;;3.72;;
33453;SDS011;39400;49.744;7.012;2023-08-24T06:22:58;6.00;;;3.92;;
33453;SDS011;39400;49.744;7.012;2023-08-24T06:25:24;10.75;;;4.55;;
33453;SDS011;39400;49.744;7.012;2023-08-24T06:27:49;8.03;;;3.60;;
33453;SDS011;39400;49.744;7.012;2023-08-24T06:30:14;10.52;;;4.03;;
33453;SDS011;39400;49.744;7.012;2023-08-24T06:32:39;5.35;;;3.20;;
33453;SDS011;39400;49.744;7.012;2023-08-24T06:35:05;6.57;;;3.30;;
33453;SDS011;39400;49.744;7.012;2023-08-24T06:37:30;9.02;;;3.55;;
33453;SDS011;39400;49.744;7.012;2023-08-24T06:39:55;8.15;;;3.60;;
33453;SDS011;39400;49.744;7.012;2023-08-24T06:42:21;5.07;;;3.15;;
33453;SDS011;39400;49.744;7.012;2023-08-24T06:44:46;6.45;;;3.80;;
33453;SDS011;39400;49.744;7.012;2023-08-24T06:47:12;7.88;;;3.78;;
33453;SDS011;39400;49.744;7.012;2023-08-24T06:49:37;6.13;;;3.40;;
33453;SDS011;39400;49.744;7.012;2023-08-24T06:52:03;9.43;;;4.43;;
33453;SDS011;39400;49.744;7.012;2023-08-24T06:54:28;5.00;;;3.58;;
33453;SDS011;39400;49.744;7.012;2023-08-24T06:56:53;6.95;;;3.08;;
33453;SDS011;39400;49.744;7.012;2023-08-24T06:59:19;7.75;;;2.92;;
33453;SDS011;39400;49.744;7.012;2023-08-24T07:01:44;6.63;;;3.47;;
33453;SDS011;39400;49.744;7.012;2023-08-24T07:04:09;17.65;;;3.63;;
33453;SDS011;39400;49.744;7.012;2023-08-24T07:06:35;6.97;;;3.55;;
33453;SDS011;39400;49.744;7.012;2023-08-24T07:09:00;6.13;;;3.13;;
33453;SDS011;39400;49.744;7.012;2023-08-24T07:11:25;8.80;;;2.70;;
33453;SDS011;39400;49.744;7.012;2023-08-24T07:13:51;7.93;;;2.95;;
33453;SDS011;39400;49.744;7.012;2023-08-24T07:16:16;7.10;;;3.40;;
33453;SDS011;39400;49.744;7.012;2023-08-24T07:18:41;8.43;;;3.38;;
33453;SDS011;39400;49.744;7.012;2023-08-24T07:21:07;7.50;;;3.53;;
33453;SDS011;39400;49.744;7.012;2023-08-24T07:23:32;5.60;;;3.08;;
33453;SDS011;39400;49.744;7.012;2023-08-24T07:25:57;11.50;;;2.85;;
33453;SDS011;39400;49.744;7.012;2023-08-24T07:28:22;5.53;;;3.17;;
33453;SDS011;39400;49.744;7.012;2023-08-24T07:30:48;8.15;;;3.08;;
33453;SDS011;39400;49.744;7.012;2023-08-24T07:33:13;5.53;;;3.38;;
33453;SDS011;39400;49.744;7.012;2023-08-24T07:35:38;4.88;;;2.97;;
33453;SDS011;39400;49.744;7.012;2023-08-24T07:38:04;5.28;;;3.03;;
33453;SDS011;39400;49.744;7.012;2023-08-24T07:40:29;4.78;;;3.00;;
33453;SDS011;39400;49.744;7.012;2023-08-24T07:42:54;3.92;;;2.67;;
33453;SDS011;39400;49.744;7.012;2023-08-24T07:45:20;6.50;;;3.25;;
33453;SDS011;39400;49.744;7.012;2023-08-24T07:47:45;5.82;;;2.75;;
33453;SDS011;39400;49.744;7.012;2023-08-24T07:50:11;5.93;;;2.83;;
33453;SDS011;39400;49.744;7.012;2023-08-24T07:52:37;4.25;;;2.53;;
33453;SDS011;39400;49.744;7.012;2023-08-24T07:55:03;9.15;;;2.40;;
33453;SDS011;39400;49.744;7.012;2023-08-24T07:57:29;6.22;;;2.80;;
33453;SDS011;39400;49.744;7.012;2023-08-24T07:59:55;10.50;;;3.40;;
33453;SDS011;39400;49.744;7.012;2023-08-24T08:02:20;8.80;;;3.05;;
33453;SDS011;39400;49.744;7.012;2023-08-24T08:04:45;5.60;;;2.40;;
33453;SDS011;39400;49.744;7.012;2023-08-24T08:07:12;6.32;;;3.00;;
33453;SDS011;39400;49.744;7.012;2023-08-24T08:09:37;7.60;;;2.65;;
33453;SDS011;39400;49.744;7.012;2023-08-24T08:12:03;5.93;;;2.78;;
33453;SDS011;39400;49.744;7.012;2023-08-24T08:14:29;6.22;;;3.13;;
33453;SDS011;39400;49.744;7.012;2023-08-24T08:16:54;5.55;;;2.70;;
33453;SDS011;39400;49.744;7.012;2023-08-24T08:19:20;7.88;;;3.00;;
33453;SDS011;39400;49.744;7.012;2023-08-24T08:21:46;10.60;;;3.13;;
33453;SDS011;39400;49.744;7.012;2023-08-24T08:24:11;11.80;;;3.08;;
33453;SDS011;39400;49.744;7.012;2023-08-24T08:26:36;6.45;;;3.00;;
33453;SDS011;39400;49.744;7.012;2023-08-24T08:29:02;6.43;;;2.65;;
33453;SDS011;39400;49.744;7.012;2023-08-24T08:31:27;4.20;;;2.45;;
33453;SDS011;39400;49.744;7.012;2023-08-24T08:33:52;7.43;;;2.67;;
33453;SDS011;39400;49.744;7.012;2023-08-24T08:36:17;6.68;;;2.72;;
33453;SDS011;39400;49.744;7.012;2023-08-24T08:38:43;4.88;;;2.10;;
33453;SDS011;39400;49.744;7.012;2023-08-24T08:41:08;5.03;;;2.65;;
33453;SDS011;39400;49.744;7.012;2023-08-24T08:43:34;5.50;;;2.78;;
33453;SDS011;39400;49.744;7.012;2023-08-24T08:45:59;4.60;;;2.53;;
33453;SDS011;39400;49.744;7.012;2023-08-24T08:48:25;3.40;;;2.53;;
33453;SDS011;39400;49.744;7.012;2023-08-24T08:50:51;7.75;;;2.58;;
33453;SDS011;39400;49.744;7.012;2023-08-24T08:53:20;7.72;;;3.25;;
33453;SDS011;39400;49.744;7.012;2023-08-24T08:55:46;4.15;;;2.42;;
33453;SDS011;39400;49.744;7.012;2023-08-24T08:58:12;4.30;;;2.65;;
33453;SDS011;39400;49.744;7.012;2023-08-24T09:00:37;4.72;;;2.80;;
33453;SDS011;39400;49.744;7.012;2023-08-24T09:03:02;6.30;;;2.80;;
33453;SDS011;39400;49.744;7.012;2023-08-24T09:05:30;4.32;;;2.50;;
33453;SDS011;39400;49.744;7.012;2023-08-24T09:07:56;5.68;;;2.40;;
33453;SDS011;39400;49.744;7.012;2023-08-24T09:10:23;5.03;;;2.78;;
33453;SDS011;39400;49.744;7.012;2023-08-24T09:12:48;5.00;;;2.55;;
33453;SDS011;39400;49.744;7.012;2023-08-24T09:15:14;11.43;;;2.97;;
33453;SDS011;39400;49.744;7.012;2023-08-24T09:17:42;8.68;;;2.67;;
33453;SDS011;39400;49.744;7.012;2023-08-24T09:20:08;4.90;;;2.47;;
33453;SDS011;39400;49.744;7.012;2023-08-24T09:22:35;5.10;;;2.42;;
33453;SDS011;39400;49.744;7.012;2023-08-24T09:25:01;5.60;;;3.30;;
33453;SDS011;39400;49.744;7.012;2023-08-24T09:27:27;4.30;;;2.75;;
33453;SDS011;39400;49.744;7.012;2023-08-24T09:29:52;7.10;;;2.92;;
33453;SDS011;39400;49.744;7.012;2023-08-24T09:32:24;6.35;;;3.33;;
33453;SDS011;39400;49.744;7.012;2023-08-24T09:34:53;9.18;;;2.65;;
33453;SDS011;39400;49.744;7.012;2023-08-24T09:37:19;5.38;;;3.17;;
33453;SDS011;39400;49.744;7.012;2023-08-24T09:39:44;3.17;;;2.58;;
33453;SDS011;39400;49.744;7.012;2023-08-24T09:42:10;5.50;;;3.30;;
33453;SDS011;39400;49.744;7.012;2023-08-24T09:44:35;6.80;;;2.67;;
33453;SDS011;39400;49.744;7.012;2023-08-24T09:47:00;6.15;;;3.22;;
33453;SDS011;39400;49.744;7.012;2023-08-24T09:49:26;5.80;;;2.73;;
33453;SDS011;39400;49.744;7.012;2023-08-24T09:51:55;5.75;;;2.92;;
33453;SDS011;39400;49.744;7.012;2023-08-24T09:54:21;5.90;;;3.15;;
33453;SDS011;39400;49.744;7.012;2023-08-24T09:56:51;7.63;;;3.67;;
33453;SDS011;39400;49.744;7.012;2023-08-24T09:59:17;5.20;;;3.00;;
33453;SDS011;39400;49.744;7.012;2023-08-24T10:01:43;5.97;;;3.00;;
33453;SDS011;39400;49.744;7.012;2023-08-24T10:04:09;4.60;;;2.60;;
33453;SDS011;39400;49.744;7.012;2023-08-24T10:06:38;7.85;;;3.10;;
33453;SDS011;39400;49.744;7.012;2023-08-24T10:09:06;5.32;;;3.05;;
33453;SDS011;39400;49.744;7.012;2023-08-24T10:11:34;4.60;;;2.42;;
33453;SDS011;39400;49.744;7.012;2023-08-24T10:14:06;5.70;;;2.72;;
33453;SDS011;39400;49.744;7.012;2023-08-24T10:16:35;6.03;;;3.40;;
33453;SDS011;39400;49.744;7.012;2023-08-24T10:19:01;5.10;;;2.45;;
33453;SDS011;39400;49.744;7.012;2023-08-24T10:21:27;3.75;;;2.80;;
33453;SDS011;39400;49.744;7.012;2023-08-24T10:23:54;3.83;;;2.88;;
33453;SDS011;39400;49.744;7.012;2023-08-24T10:26:22;5.47;;;2.90;;
33453;SDS011;39400;49.744;7.012;2023-08-24T10:28:48;4.53;;;2.92;;
33453;SDS011;39400;49.744;7.012;2023-08-24T10:31:15;4.97;;;3.25;;
33453;SDS011;39400;49.744;7.012;2023-08-24T10:33:40;4.80;;;2.67;;
33453;SDS011;39400;49.744;7.012;2023-08-24T10:36:07;4.35;;;2.67;;
33453;SDS011;39400;49.744;7.012;2023-08-24T10:38:34;7.90;;;3.28;;
33453;SDS011;39400;49.744;7.012;2023-08-24T10:41:05;5.97;;;3.05;;
33453;SDS011;39400;49.744;7.012;2023-08-24T10:43:34;3.58;;;2.60;;
33453;SDS011;39400;49.744;7.012;2023-08-24T10:46:00;3.85;;;2.53;;
33453;SDS011;39400;49.744;7.012;2023-08-24T10:48:30;3.78;;;2.50;;
33453;SDS011;39400;49.744;7.012;2023-08-24T10:53:41;4.32;;;2.58;;
33453;SDS011;39400;49.744;7.012;2023-08-24T10:56:15;4.80;;;3.10;;
33453;SDS011;39400;49.744;7.012;2023-08-24T10:58:42;4.10;;;2.60;;
33453;SDS011;39400;49.744;7.012;2023-08-24T11:01:13;4.55;;;2.28;;
33453;SDS011;39400;49.744;7.012;2023-08-24T11:03:39;5.40;;;2.85;;
33453;SDS011;39400;49.744;7.012;2023-08-24T11:06:17;7.10;;;3.03;;
33453;SDS011;39400;49.744;7.012;2023-08-24T11:08:49;4.60;;;2.90;;
33453;SDS011;39400;49.744;7.012;2023-08-24T11:11:18;5.10;;;3.03;;
33453;SDS011;39400;49.744;7.012;2023-08-24T11:16:42;8.70;;;3.10;;
33453;SDS011;39400;49.744;7.012;2023-08-24T11:19:10;8.05;;;3.15;;
33453;SDS011;39400;49.744;7.012;2023-08-24T11:21:36;4.45;;;3.00;;
33453;SDS011;39400;49.744;7.012;2023-08-24T11:24:03;4.47;;;2.78;;
33453;SDS011;39400;49.744;7.012;2023-08-24T11:26:29;4.90;;;2.75;;
33453;SDS011;39400;49.744;7.012;2023-08-24T11:28:56;5.78;;;2.70;;
33453;SDS011;39400;49.744;7.012;2023-08-24T11:31:21;6.50;;;3.50;;
33453;SDS011;39400;49.744;7.012;2023-08-24T11:33:46;6.15;;;2.97;;
33453;SDS011;39400;49.744;7.012;2023-08-24T11:36:12;6.47;;;3.58;;
33453;SDS011;39400;49.744;7.012;2023-08-24T11:38:40;4.40;;;2.72;;
33453;SDS011;39400;49.744;7.012;2023-08-24T11:41:14;4.45;;;3.17;;
33453;SDS011;39400;49.744;7.012;2023-08-24T11:43:40;12.70;;;3.67;;
33453;SDS011;39400;49.744;7.012;2023-08-24T11:46:06;8.50;;;3.58;;
33453;SDS011;39400;49.744;7.012;2023-08-24T11:48:32;5.80;;;3.17;;
33453;SDS011;39400;49.744;7.012;2023-08-24T11:50:57;4.75;;;2.67;;
33453;SDS011;39400;49.744;7.012;2023-08-24T11:53:24;6.63;;;3.15;;
33453;SDS011;39400;49.744;7.012;2023-08-24T11:55:49;8.93;;;3.17;;
33453;SDS011;39400;49.744;7.012;2023-08-24T11:58:17;8.27;;;3.13;;
33453;SDS011;39400;49.744;7.012;2023-08-24T12:00:42;5.43;;;3.10;;
33453;SDS011;39400;49.744;7.012;2023-08-24T12:03:09;4.85;;;3.17;;
33453;SDS011;39400;49.744;7.012;2023-08-24T12:05:34;7.32;;;2.85;;
33453;SDS011;39400;49.744;7.012;2023-08-24T12:08:00;8.05;;;3.85;;
33453;SDS011;39400;49.744;7.012;2023-08-24T12:10:25;6.68;;;4.05;;
33453;SDS011;39400;49.744;7.012;2023-08-24T12:13:00;6.18;;;3.15;;
33453;SDS011;39400;49.744;7.012;2023-08-24T12:15:27;5.20;;;3.47;;
33453;SDS011;39400;49.744;7.012;2023-08-24T12:17:53;7.57;;;3.90;;
33453;SDS011;39400;49.744;7.012;2023-08-24T12:20:19;9.95;;;3.60;;
33453;SDS011;39400;49.744;7.012;2023-08-24T12:22:52;7.85;;;3.92;;
33453;SDS011;39400;49.744;7.012;2023-08-24T12:25:18;11.05;;;4.25;;
33453;SDS011;39400;49.744;7.012;2023-08-24T12:27:46;8.18;;;5.00;;
33453;SDS011;39400;49.744;7.012;2023-08-24T12:30:12;7.93;;;4.88;;
33453;SDS011;39400;49.744;7.012;2023-08-24T12:32:44;9.20;;;4.70;;
33453;SDS011;39400;49.744;7.012;2023-08-24T12:35:14;11.32;;;5.68;;
33453;SDS011;39400;49.744;7.012;2023-08-24T12:37:39;7.70;;;5.43;;
33453;SDS011;39400;49.744;7.012;2023-08-24T12:40:05;11.10;;;4.65;;
33453;SDS011;39400;49.744;7.012;2023-08-24T12:42:31;8.82;;;4.47;;
33453;SDS011;39400;49.744;7.012;2023-08-24T12:44:57;6.43;;;3.78;;
33453;SDS011;39400;49.744;7.012;2023-08-24T12:47:22;16.95;;;5.00;;
33453;SDS011;39400;49.744;7.012;2023-08-24T12:49:48;20.02;;;4.68;;
33453;SDS011;39400;49.744;7.012;2023-08-24T12:52:13;8.88;;;4.85;;
33453;SDS011;39400;49.744;7.012;2023-08-24T12:54:38;10.77;;;4.90;;
33453;SDS011;39400;49.744;7.012;2023-08-24T12:57:04;6.40;;;4.53;;
33453;SDS011;39400;49.744;7.012;2023-08-24T12:59:29;5.90;;;3.90;;
33453;SDS011;39400;49.744;7.012;2023-08-24T13:01:54;13.18;;;4.22;;
33453;SDS011;39400;49.744;7.012;2023-08-24T13:04:20;10.82;;;4.88;;
33453;SDS011;39400;49.744;7.012;2023-08-24T13:06:45;9.18;;;4.22;;
33453;SDS011;39400;49.744;7.012;2023-08-24T13:09:10;7.63;;;4.78;;
33453;SDS011;39400;49.744;7.012;2023-08-24T13:11:36;6.63;;;4.22;;
33453;SDS011;39400;49.744;7.012;2023-08-24T13:14:01;10.40;;;4.75;;
33453;SDS011;39400;49.744;7.012;2023-08-24T13:16:26;6.13;;;4.05;;
33453;SDS011;39400;49.744;7.012;2023-08-24T13:18:52;10.13;;;3.78;;
33453;SDS011;39400;49.744;7.012;2023-08-24T13:21:17;6.47;;;3.67;;
33453;SDS011;39400;49.744;7.012;2023-08-24T13:23:42;5.97;;;3.50;;
33453;SDS011;39400;49.744;7.012;2023-08-24T13:26:16;7.47;;;3.65;;
33453;SDS011;39400;49.744;7.012;2023-08-24T13:28:42;9.20;;;3.40;;
33453;SDS011;39400;49.744;7.012;2023-08-24T13:31:07;6.90;;;4.03;;
33453;SDS011;39400;49.744;7.012;2023-08-24T13:33:32;8.45;;;3.47;;
33453;SDS011;39400;49.744;7.012;2023-08-24T13:35:58;5.85;;;3.40;;
33453;SDS011;39400;49.744;7.012;2023-08-24T13:38:23;4.85;;;3.25;;
33453;SDS011;39400;49.744;7.012;2023-08-24T13:40:48;7.28;;;3.85;;
33453;SDS011;39400;49.744;7.012;2023-08-24T13:43:13;7.70;;;3.80;;
33453;SDS011;39400;49.744;7.012;2023-08-24T13:45:39;6.38;;;3.72;;
33453;SDS011;39400;49.744;7.012;2023-08-24T13:48:04;8.02;;;3.75;;
33453;SDS011;39400;49.744;7.012;2023-08-24T13:50:29;9.20;;;5.78;;
33453;SDS011;39400;49.744;7.012;2023-08-24T13:52:55;13.32;;;10.52;;
33453;SDS011;39400;49.744;7.012;2023-08-24T13:55:20;10.10;;;6.97;;
33453;SDS011;39400;49.744;7.012;2023-08-24T13:57:45;7.28;;;4.85;;
33453;SDS011;39400;49.744;7.012;2023-08-24T14:00:11;6.70;;;4.00;;
33453;SDS011;39400;49.744;7.012;2023-08-24T14:02:39;6.15;;;3.80;;
33453;SDS011;39400;49.744;7.012;2023-08-24T14:05:05;9.65;;;4.03;;
33453;SDS011;39400;49.744;7.012;2023-08-24T14:07:31;6.55;;;4.15;;
33453;SDS011;39400;49.744;7.012;2023-08-24T14:09:56;7.65;;;4.07;;
33453;SDS011;39400;49.744;7.012;2023-08-24T14:12:21;6.90;;;4.05;;
33453;SDS011;39400;49.744;7.012;2023-08-24T14:14:47;6.10;;;3.92;;
33453;SDS011;39400;49.744;7.012;2023-08-24T14:17:12;6.45;;;3.55;;
33453;SDS011;39400;49.744;7.012;2023-08-24T14:19:37;5.43;;;3.70;;
33453;SDS011;39400;49.744;7.012;2023-08-24T14:22:03;10.87;;;5.33;;
33453;SDS011;39400;49.744;7.012;2023-08-24T14:24:28;20.83;;;15.32;;
33453;SDS011;39400;49.744;7.012;2023-08-24T14:26:53;13.90;;;11.75;;
33453;SDS011;39400;49.744;7.012;2023-08-24T14:29:18;23.37;;;17.37;;
33453;SDS011;39400;49.744;7.012;2023-08-24T14:31:44;14.98;;;8.63;;
33453;SDS011;39400;49.744;7.012;2023-08-24T14:34:09;9.55;;;5.38;;
33453;SDS011;39400;49.744;7.012;2023-08-24T14:36:34;13.55;;;5.82;;
33453;SDS011;39400;49.744;7.012;2023-08-24T14:39:00;10.50;;;4.75;;
33453;SDS011;39400;49.744;7.012;2023-08-24T14:41:25;7.97;;;4.38;;
33453;SDS011;39400;49.744;7.012;2023-08-24T14:43:50;7.53;;;4.10;;
33453;SDS011;39400;49.744;7.012;2023-08-24T14:46:16;12.50;;;4.70;;
33453;SDS011;39400;49.744;7.012;2023-08-24T14:48:41;8.77;;;4.07;;
33453;SDS011;39400;49.744;7.012;2023-08-24T14:51:06;4.72;;;3.80;;
33453;SDS011;39400;49.744;7.012;2023-08-24T14:53:32;10.98;;;4.22;;